createdAt,value
2022-08-14T00:00:16.333Z,22.67
2022-08-14T00:03:05.205Z,19.40
2022-08-14T00:05:58.419Z,21.48
2022-08-14T00:08:49.189Z,18.17
2022-08-14T00:11:32.203Z,23.40
2022-08-14T00:14:21.204Z,19.42
2022-08-14T00:17:05.078Z,16.42
2022-08-14T00:19:53.829Z,20.10
2022-08-14T00:22:56.986Z,18.08
2022-08-14T00:25:42.237Z,22.95
2022-08-14T00:28:35.177Z,25.50
2022-08-14T00:31:35.377Z,19.90
2022-08-14T00:34:36.489Z,19.88
2022-08-14T00:37:33.215Z,18.58
2022-08-14T00:40:33.132Z,19.52
2022-08-14T00:43:17.423Z,24.67
2022-08-14T00:46:08.047Z,19.45
2022-08-14T00:48:58.009Z,22.13
2022-08-14T00:51:41.083Z,21.23
2022-08-14T00:54:29.853Z,21.67
2022-08-14T00:57:19.937Z,21.50
2022-08-14T01:00:03.090Z,23.80
2022-08-14T01:02:53.737Z,19.67
2022-08-14T01:05:51.497Z,21.85
2022-08-14T01:08:51.295Z,23.40
2022-08-14T01:11:41.176Z,21.65
2022-08-14T01:14:36.106Z,20.55
2022-08-14T01:17:24.505Z,19.27
2022-08-14T01:20:27.588Z,24.73
2022-08-14T01:23:21.702Z,22.15
2022-08-14T01:26:12.205Z,21.92
2022-08-14T01:29:44.642Z,23.52
2022-08-14T01:32:30.953Z,22.38
2022-08-14T01:36:04.942Z,21.00
2022-08-14T01:38:26.076Z,22.35
2022-08-14T01:41:31.575Z,22.30
2022-08-14T01:44:32.139Z,20.13
2022-08-14T01:47:21.695Z,21.00
2022-08-14T01:50:14.348Z,20.65
2022-08-14T01:52:58.565Z,21.08
2022-08-14T01:55:49.088Z,23.48
2022-08-14T01:58:32.308Z,19.23
2022-08-14T02:01:22.920Z,23.33
2022-08-14T02:04:20.453Z,24.85
2022-08-14T02:07:17.943Z,21.08
2022-08-14T02:10:17.988Z,22.13
2022-08-14T02:13:07.450Z,18.70
2022-08-14T02:15:50.313Z,20.90
2022-08-14T02:18:38.953Z,17.45
2022-08-14T02:21:28.101Z,16.95
2022-08-14T02:24:39.349Z,22.73
2022-08-14T02:28:23.956Z,21.88
2022-08-14T02:30:33.923Z,19.45
2022-08-14T02:33:23.307Z,25.00
2022-08-14T02:37:02.871Z,18.50
2022-08-14T02:39:09.404Z,22.05
2022-08-14T02:41:59.922Z,18.38
2022-08-14T02:44:49.071Z,19.23
2022-08-14T02:47:38.847Z,20.42
2022-08-14T02:50:29.338Z,20.40
2022-08-14T02:53:22.957Z,18.15
2022-08-14T02:56:30.005Z,17.02
2022-08-14T02:59:15.194Z,24.95
2022-08-14T03:01:58.282Z,17.27
2022-08-14T03:04:47.102Z,15.68
2022-08-14T03:07:36.178Z,17.48
2022-08-14T03:10:33.337Z,14.15
2022-08-14T03:13:23.168Z,15.80
2022-08-14T03:16:09.063Z,14.02
2022-08-14T03:19:09.191Z,20.63
2022-08-14T03:21:56.207Z,15.70
2022-08-14T03:24:45.951Z,14.98
2022-08-14T03:27:35.309Z,18.77
2022-08-14T03:30:43.962Z,18.42
2022-08-14T03:33:26.558Z,13.25
2022-08-14T03:37:37.467Z,16.98
2022-08-14T03:39:24.155Z,13.38
2022-08-14T03:42:18.877Z,15.43
2022-08-14T03:45:19.825Z,15.52
2022-08-14T03:48:29.504Z,13.60
2022-08-14T03:51:22.210Z,13.73
2022-08-14T03:54:06.919Z,12.65
2022-08-14T03:56:50.269Z,17.95
2022-08-14T03:59:38.970Z,13.68
2022-08-14T04:02:32.217Z,14.48
2022-08-14T04:05:17.237Z,11.38
2022-08-14T04:08:22.549Z,12.77
2022-08-14T04:11:08.041Z,15.95
2022-08-14T04:13:52.375Z,12.65
2022-08-14T04:16:41.247Z,11.20
2022-08-14T04:19:28.013Z,15.40
2022-08-14T04:22:16.937Z,14.68
2022-08-14T04:25:11.153Z,11.63
2022-08-14T04:28:02.344Z,12.88
2022-08-14T04:30:59.599Z,13.85
2022-08-14T04:33:47.966Z,10.10
2022-08-14T04:36:31.104Z,14.35
2022-08-14T04:39:46.683Z,11.13
2022-08-14T04:42:51.592Z,11.63
2022-08-14T04:45:51.038Z,10.55
2022-08-14T04:48:43.732Z,11.23
2022-08-14T04:51:37.547Z,10.80
2022-08-14T04:54:36.218Z,12.48
2022-08-14T04:57:20.306Z,9.45
2022-08-14T05:00:16.353Z,12.77
2022-08-14T05:03:00.244Z,11.20
2022-08-14T05:05:51.152Z,19.35
2022-08-14T05:08:59.651Z,12.07
2022-08-14T05:11:44.240Z,13.77
2022-08-14T05:14:46.016Z,10.50
2022-08-14T05:17:44.163Z,11.52
2022-08-14T05:21:56.891Z,10.85
2022-08-14T05:23:48.235Z,14.45
2022-08-14T05:26:36.939Z,23.40
2022-08-14T05:29:19.023Z,17.05
2022-08-14T05:32:14.092Z,14.57
2022-08-14T05:35:06.226Z,14.40
2022-08-14T05:37:51.173Z,11.15
2022-08-14T05:40:39.251Z,16.73
2022-08-14T05:43:23.932Z,12.23
2022-08-14T05:46:23.975Z,14.30
2022-08-14T05:52:02.486Z,13.80
2022-08-14T05:54:50.955Z,10.85
2022-08-14T05:57:39.372Z,15.27
2022-08-14T06:00:28.948Z,11.50
2022-08-14T06:03:20.030Z,13.23
2022-08-14T06:06:10.228Z,14.23
2022-08-14T06:08:53.122Z,13.93
2022-08-14T06:11:42.928Z,12.30
2022-08-14T06:14:32.320Z,13.55
2022-08-14T06:17:15.706Z,13.75
2022-08-14T06:20:10.272Z,12.60
2022-08-14T06:23:00.196Z,19.80
2022-08-14T06:25:52.693Z,12.63
2022-08-14T06:28:34.930Z,19.95
2022-08-14T06:31:17.261Z,16.45
2022-08-14T06:35:04.755Z,17.42
2022-08-14T06:37:21.100Z,11.88
2022-08-14T06:40:25.429Z,15.05
2022-08-14T06:43:15.394Z,12.60
2022-08-14T06:46:04.142Z,10.57
2022-08-14T06:48:46.667Z,11.77
2022-08-14T06:51:38.738Z,14.98
2022-08-14T06:54:33.269Z,12.90
2022-08-14T06:57:15.946Z,10.57
2022-08-14T07:00:04.948Z,12.13
2022-08-14T07:03:06.658Z,13.25
2022-08-14T07:06:01.189Z,11.40
2022-08-14T07:08:54.842Z,12.55
2022-08-14T07:11:43.284Z,11.40
2022-08-14T07:14:26.947Z,11.80
2022-08-14T07:17:09.291Z,14.60
2022-08-14T07:19:57.941Z,12.02
2022-08-14T07:22:49.852Z,13.60
2022-08-14T07:25:37.614Z,13.15
2022-08-14T07:28:43.632Z,16.50
2022-08-14T07:31:34.081Z,13.23
2022-08-14T07:34:40.959Z,12.90
2022-08-14T07:37:37.180Z,12.25
2022-08-14T07:40:27.656Z,13.73
2022-08-14T07:43:14.444Z,14.95
2022-08-14T07:45:57.237Z,12.75
2022-08-14T07:48:45.928Z,14.75
2022-08-14T07:51:37.289Z,12.20
2022-08-14T07:54:23.286Z,10.95
2022-08-14T07:57:24.710Z,11.38
2022-08-14T08:00:07.915Z,11.45
2022-08-14T08:03:00.547Z,12.43
2022-08-14T08:05:42.829Z,12.25
2022-08-14T08:08:35.161Z,12.13
2022-08-14T08:11:20.515Z,9.75
2022-08-14T08:14:17.270Z,9.48
2022-08-14T08:17:07.182Z,11.00
2022-08-14T08:19:56.201Z,10.27
2022-08-14T08:22:38.716Z,9.88
2022-08-14T08:25:26.991Z,16.60
2022-08-14T08:28:26.473Z,11.65
2022-08-14T08:31:08.824Z,12.80
2022-08-14T08:33:57.874Z,8.43
2022-08-14T08:36:57.797Z,7.43
2022-08-14T08:40:04.307Z,9.57
2022-08-14T08:42:54.247Z,9.45
2022-08-14T08:45:44.943Z,9.15
2022-08-14T08:48:41.348Z,7.88
2022-08-14T08:51:43.954Z,9.60
2022-08-14T08:54:30.869Z,8.70
2022-08-14T08:57:29.189Z,7.93
2022-08-14T09:00:25.196Z,8.20
2022-08-14T09:03:25.185Z,8.20
2022-08-14T09:06:23.293Z,8.82
2022-08-14T09:09:18.192Z,8.27
2022-08-14T09:12:04.358Z,7.32
2022-08-14T09:14:54.951Z,8.77
2022-08-14T09:17:37.638Z,8.10
2022-08-14T09:20:30.609Z,9.50
2022-08-14T09:23:27.460Z,9.38
2022-08-14T09:26:22.801Z,9.32
2022-08-14T09:29:17.929Z,9.13
2022-08-14T09:32:58.633Z,9.85
2022-08-14T09:35:35.843Z,8.43
2022-08-14T09:39:06.074Z,11.32
2022-08-14T09:42:33.983Z,12.75
2022-08-14T09:45:26.087Z,8.77
2022-08-14T09:48:27.449Z,9.55
2022-08-14T09:51:44.710Z,8.98
2022-08-14T09:54:45.456Z,9.73
2022-08-14T09:57:37.869Z,9.98
2022-08-14T10:00:42.204Z,10.27
2022-08-14T10:06:35.207Z,10.93
2022-08-14T10:09:17.073Z,9.45
2022-08-14T10:12:00.769Z,10.25
2022-08-14T10:14:53.237Z,9.32
2022-08-14T10:17:38.859Z,11.63
2022-08-14T10:20:42.145Z,10.23
2022-08-14T10:23:35.524Z,11.18
2022-08-14T10:26:22.462Z,11.93
2022-08-14T10:29:32.032Z,13.25
2022-08-14T10:32:28.715Z,9.85
2022-08-14T10:35:22.475Z,10.23
2022-08-14T10:38:12.141Z,9.10
2022-08-14T10:41:08.029Z,14.80
2022-08-14T10:44:20.951Z,11.85
2022-08-14T10:47:40.065Z,13.45
2022-08-14T10:50:24.202Z,14.50
2022-08-14T10:53:08.512Z,12.38
2022-08-14T10:55:57.170Z,11.27
2022-08-14T10:58:46.188Z,14.93
2022-08-14T11:01:40.805Z,12.77
2022-08-14T11:04:39.119Z,11.45
2022-08-14T11:07:27.226Z,12.18
2022-08-14T11:10:12.952Z,12.27
2022-08-14T11:12:58.808Z,10.88
2022-08-14T11:15:47.929Z,11.27
2022-08-14T11:18:40.434Z,11.20
2022-08-14T11:21:30.229Z,11.52
2022-08-14T11:24:51.018Z,11.10
2022-08-14T11:27:35.283Z,11.60
2022-08-14T11:30:50.639Z,13.70
2022-08-14T11:33:32.538Z,14.52
2022-08-14T11:36:18.016Z,17.95
2022-08-14T11:39:09.813Z,14.30
2022-08-14T11:42:57.377Z,13.73
2022-08-14T11:45:17.101Z,13.38
2022-08-14T11:48:12.901Z,17.02
2022-08-14T11:51:30.722Z,13.98
2022-08-14T11:54:15.174Z,16.40
2022-08-14T11:57:02.312Z,14.85
2022-08-14T11:59:56.051Z,13.70
2022-08-14T12:03:03.043Z,13.82
2022-08-14T12:05:54.949Z,16.10
2022-08-14T12:08:44.931Z,14.88
2022-08-14T12:11:29.005Z,16.38
2022-08-14T12:14:29.722Z,13.52
2022-08-14T12:17:17.126Z,11.20
2022-08-14T12:20:15.062Z,15.60
2022-08-14T12:22:57.666Z,12.50
2022-08-14T12:25:45.970Z,11.88
2022-08-14T12:28:59.482Z,15.68
2022-08-14T12:31:51.540Z,10.32
2022-08-14T12:39:40.151Z,12.80
2022-08-14T12:42:34.883Z,14.75
2022-08-14T12:45:20.859Z,10.68
2022-08-14T12:48:20.731Z,13.55
2022-08-14T12:51:10.933Z,11.07
2022-08-14T12:53:54.933Z,20.02
2022-08-14T12:56:48.251Z,11.00
2022-08-14T12:59:43.162Z,12.25
2022-08-14T13:02:34.261Z,11.60
2022-08-14T13:05:27.526Z,10.98
2022-08-14T13:08:34.009Z,14.02
2022-08-14T13:11:23.831Z,12.15
2022-08-14T13:14:08.237Z,12.90
2022-08-14T13:17:07.145Z,13.55
2022-08-14T13:19:53.037Z,17.00
2022-08-14T13:22:46.196Z,12.00
2022-08-14T13:25:31.985Z,14.77
2022-08-14T13:28:29.924Z,14.93
2022-08-14T13:31:24.238Z,13.65
2022-08-14T13:34:21.464Z,12.60
2022-08-14T13:37:06.993Z,14.15
2022-08-14T13:40:04.154Z,13.38
2022-08-14T13:43:01.186Z,19.08
2022-08-14T13:45:59.948Z,20.33
2022-08-14T13:48:50.186Z,20.52
2022-08-14T13:51:47.390Z,22.55
2022-08-14T13:54:31.962Z,19.90
2022-08-14T13:57:22.926Z,22.58
2022-08-14T14:00:21.753Z,21.15
2022-08-14T14:03:22.806Z,24.00
2022-08-14T14:06:06.143Z,23.13
2022-08-14T14:11:48.057Z,24.15
2022-08-14T14:14:51.431Z,19.65
2022-08-14T14:17:44.083Z,22.88
2022-08-14T14:20:34.589Z,25.45
2022-08-14T14:23:21.839Z,22.20
2022-08-14T14:26:04.982Z,21.70
2022-08-14T14:31:39.029Z,25.33
2022-08-14T14:34:31.177Z,23.25
2022-08-14T14:37:15.301Z,26.33
2022-08-14T14:40:52.591Z,24.85
2022-08-14T14:43:26.017Z,23.02
2022-08-14T14:46:36.610Z,22.67
2022-08-14T14:49:42.019Z,24.05
2022-08-14T14:52:45.952Z,30.05
2022-08-14T14:55:54.407Z,24.95
2022-08-14T14:58:39.491Z,29.02
2022-08-14T15:01:30.853Z,29.33
2022-08-14T15:04:20.638Z,26.38
2022-08-14T15:07:12.421Z,21.75
2022-08-14T15:09:55.393Z,24.45
2022-08-14T15:12:56.026Z,24.45
2022-08-14T15:15:42.458Z,18.75
2022-08-14T15:18:36.825Z,18.17
2022-08-14T15:21:28.156Z,18.38
2022-08-14T15:24:21.135Z,17.27
2022-08-14T15:27:14.165Z,17.73
2022-08-14T15:30:08.375Z,18.85
2022-08-14T15:32:56.803Z,20.33
2022-08-14T15:35:44.886Z,18.35
2022-08-14T15:38:41.024Z,19.13
2022-08-14T15:41:33.675Z,24.92
2022-08-14T15:44:36.787Z,19.67
2022-08-14T15:47:43.058Z,19.60
2022-08-14T15:50:27.127Z,17.92
2022-08-14T15:53:17.189Z,19.30
2022-08-14T15:55:59.109Z,20.08
2022-08-14T15:58:47.999Z,27.52
2022-08-14T16:01:53.550Z,16.40
2022-08-14T16:04:41.272Z,14.38
2022-08-14T16:07:30.206Z,13.88
2022-08-14T16:10:28.663Z,23.23
2022-08-14T16:13:12.939Z,23.67
2022-08-14T16:16:34.492Z,19.33
2022-08-14T16:19:11.132Z,19.95
2022-08-14T16:22:58.322Z,18.95
2022-08-14T16:25:06.307Z,19.38
2022-08-14T16:27:55.820Z,20.58
2022-08-14T16:30:38.522Z,22.10
2022-08-14T16:33:59.640Z,22.88
2022-08-14T16:36:35.281Z,24.00
2022-08-14T16:39:28.609Z,25.63
2022-08-14T16:42:39.326Z,23.83
2022-08-14T16:45:22.212Z,26.52
2022-08-14T16:48:54.781Z,25.58
2022-08-14T16:51:28.252Z,24.85
2022-08-14T16:54:20.780Z,25.95
2022-08-14T16:57:31.581Z,26.70
2022-08-14T17:00:27.997Z,31.88
2022-08-14T17:03:17.834Z,33.60
2022-08-14T17:06:30.544Z,31.83
2022-08-14T17:09:35.373Z,31.17
2022-08-14T17:12:33.963Z,25.38
2022-08-14T17:15:17.657Z,27.63
2022-08-14T17:18:07.880Z,24.15
2022-08-14T17:21:19.463Z,38.97
2022-08-14T17:24:58.319Z,33.05
2022-08-14T17:27:29.585Z,27.10
2022-08-14T17:30:32.839Z,30.67
2022-08-14T17:33:20.146Z,38.65
2022-08-14T17:36:45.074Z,30.15
2022-08-14T17:39:39.979Z,27.58
2022-08-14T17:42:32.792Z,31.90
2022-08-14T17:45:49.882Z,24.92
2022-08-14T17:49:14.970Z,26.75
2022-08-14T17:52:34.326Z,28.52
2022-08-14T17:56:00.891Z,25.08
2022-08-14T17:58:29.815Z,27.30
2022-08-14T18:01:26.939Z,29.30
2022-08-14T18:04:24.442Z,31.95
2022-08-14T18:08:33.227Z,28.83
2022-08-14T18:10:54.903Z,27.15
2022-08-14T18:13:51.622Z,27.05
2022-08-14T18:16:42.196Z,24.92
2022-08-14T18:19:34.482Z,33.92
2022-08-14T18:22:31.316Z,28.88
2022-08-14T18:25:23.396Z,24.77
2022-08-14T18:28:16.108Z,29.15
2022-08-14T18:31:23.335Z,23.30
2022-08-14T18:34:32.102Z,20.83
2022-08-14T18:37:22.128Z,22.65
2022-08-14T18:40:34.282Z,24.75
2022-08-14T18:43:59.434Z,18.83
2022-08-14T18:47:16.294Z,22.27
2022-08-14T18:50:26.074Z,21.92
2022-08-14T18:53:24.642Z,24.33
2022-08-14T18:56:20.150Z,16.67
2022-08-14T18:59:09.706Z,12.98
2022-08-14T19:01:56.179Z,10.82
2022-08-14T19:04:46.157Z,13.75
2022-08-14T19:07:36.214Z,12.50
2022-08-14T19:10:37.380Z,9.68
2022-08-14T19:13:44.804Z,11.20
2022-08-14T19:16:48.313Z,8.35
2022-08-14T19:19:53.089Z,8.93
2022-08-14T19:22:48.045Z,8.88
2022-08-14T19:26:01.811Z,7.97
2022-08-14T19:29:35.896Z,8.80
2022-08-14T19:32:55.673Z,8.60
2022-08-14T19:35:49.688Z,6.28
2022-08-14T19:39:14.066Z,6.03
2022-08-14T19:42:10.569Z,7.25
2022-08-14T19:44:56.907Z,7.47
2022-08-14T19:47:49.939Z,7.70
2022-08-14T19:50:45.184Z,8.68
2022-08-14T19:53:27.372Z,9.07
2022-08-14T19:56:29.150Z,10.00
2022-08-14T19:59:18.255Z,10.10
2022-08-14T20:02:03.080Z,10.55
2022-08-14T20:05:04.219Z,10.45
2022-08-14T20:07:59.758Z,10.57
2022-08-14T20:11:06.554Z,12.32
2022-08-14T20:14:23.607Z,6.68
2022-08-14T20:17:16.803Z,9.07
2022-08-14T20:20:06.968Z,3.58
2022-08-14T20:22:56.202Z,3.47
2022-08-14T20:25:55.617Z,3.40
2022-08-14T20:28:51.598Z,3.83
2022-08-14T20:31:37.004Z,3.42
2022-08-14T20:34:36.171Z,4.38
2022-08-14T20:37:22.503Z,4.28
2022-08-14T20:40:23.236Z,4.50
2022-08-14T20:43:53.828Z,4.80
2022-08-14T20:46:53.813Z,3.65
2022-08-14T20:49:37.478Z,3.05
2022-08-14T20:52:25.834Z,3.03
2022-08-14T20:55:36.182Z,3.67
2022-08-14T20:58:48.000Z,4.05
2022-08-14T21:01:40.123Z,2.78
2022-08-14T21:04:47.317Z,3.47
2022-08-14T21:07:36.791Z,2.80
2022-08-14T21:10:34.216Z,3.40
2022-08-14T21:13:29.101Z,2.10
2022-08-14T21:16:33.487Z,1.92
2022-08-14T21:19:27.907Z,1.65
2022-08-14T21:22:10.471Z,1.48
2022-08-14T21:25:02.214Z,2.97
2022-08-14T21:27:57.242Z,1.10
2022-08-14T21:30:51.723Z,1.77
2022-08-14T21:33:35.141Z,1.17
2022-08-14T21:36:26.205Z,2.05
2022-08-14T21:39:20.356Z,4.82
2022-08-14T21:42:10.959Z,4.95
2022-08-14T21:44:59.847Z,1.77
2022-08-14T21:47:43.630Z,2.58
2022-08-14T21:51:00.859Z,5.82
2022-08-14T21:53:35.393Z,11.88
2022-08-14T21:56:38.423Z,4.00
2022-08-14T21:59:39.754Z,3.90
2022-08-14T22:02:32.202Z,3.80
2022-08-14T22:05:26.061Z,1.80
2022-08-14T22:08:14.354Z,3.10
2022-08-14T22:11:05.825Z,4.75
2022-08-14T22:13:52.612Z,1.75
2022-08-14T22:17:01.779Z,1.98
2022-08-14T22:19:54.273Z,3.05
2022-08-14T22:22:44.073Z,1.75
2022-08-14T22:25:40.949Z,4.32
2022-08-14T22:28:33.276Z,2.00
2022-08-14T22:31:26.064Z,2.95
2022-08-14T22:34:17.361Z,1.77
2022-08-14T22:37:08.068Z,2.38
2022-08-14T22:40:54.733Z,2.17
2022-08-14T22:43:07.999Z,3.20
2022-08-14T22:45:55.257Z,2.35
2022-08-14T22:48:45.309Z,1.80
2022-08-14T22:51:48.183Z,1.75
2022-08-14T22:54:52.319Z,1.40
2022-08-14T22:57:43.498Z,1.40
2022-08-14T23:00:32.481Z,1.90
2022-08-14T23:03:22.072Z,3.08
2022-08-14T23:07:02.052Z,3.22
2022-08-14T23:09:35.939Z,1.27
2022-08-14T23:12:28.541Z,5.60
2022-08-14T23:15:11.207Z,1.73
2022-08-14T23:17:59.919Z,1.50
2022-08-14T23:20:45.107Z,2.13
2022-08-14T23:23:34.048Z,2.55
2022-08-14T23:26:47.053Z,4.30
2022-08-14T23:29:32.922Z,3.17
2022-08-14T23:32:18.950Z,2.25
2022-08-14T23:35:07.827Z,4.18
2022-08-14T23:37:54.014Z,3.42
2022-08-14T23:40:45.928Z,3.50
2022-08-14T23:43:31.180Z,4.65
2022-08-14T23:46:21.941Z,4.60
2022-08-14T23:49:21.377Z,4.00
2022-08-14T23:52:51.015Z,4.00
2022-08-14T23:55:19.910Z,3.83
2022-08-14T23:58:29.586Z,4.32
